createdAt,value
2023-03-14T00:00:19.000Z,161662.44
2023-03-14T00:03:22.809Z,161652.00
2023-03-14T00:06:27.806Z,161642.81
2023-03-14T00:09:31.891Z,161652.00
2023-03-14T00:12:36.312Z,161653.28
2023-03-14T00:15:40.517Z,161648.06
2023-03-14T00:18:44.619Z,161611.44
2023-03-14T00:21:48.931Z,161599.63
2023-03-14T00:24:53.145Z,161595.66
2023-03-14T00:27:57.243Z,161582.63
2023-03-14T00:31:05.069Z,161566.88
2023-03-14T00:34:09.171Z,161574.81
2023-03-14T00:37:13.154Z,161577.34
2023-03-14T00:40:17.267Z,161556.47
2023-03-14T00:43:25.113Z,161543.34
2023-03-14T00:46:29.053Z,161540.72
2023-03-14T00:49:33.312Z,161551.19
2023-03-14T00:52:37.663Z,161557.75
2023-03-14T00:55:43.738Z,161553.84
2023-03-14T00:58:48.041Z,161526.31
2023-03-14T01:01:52.171Z,161511.97
2023-03-14T01:04:56.260Z,161511.97
2023-03-14T01:08:00.569Z,161513.25
2023-03-14T01:11:29.091Z,161518.47
2023-03-14T01:14:33.284Z,161531.59
2023-03-14T01:17:38.962Z,161538.06
2023-03-14T01:20:43.351Z,161530.25
2023-03-14T01:23:48.425Z,161555.13
2023-03-14T01:26:52.187Z,161559.03
2023-03-14T01:29:56.335Z,161564.28
2023-03-14T01:33:00.246Z,161581.28
2023-03-14T01:36:04.929Z,161582.63
2023-03-14T01:39:09.781Z,161586.56
2023-03-14T01:42:14.091Z,161608.78
2023-03-14T01:45:55.951Z,161611.44
2023-03-14T01:49:25.827Z,161587.84
2023-03-14T01:52:36.137Z,161594.38
2023-03-14T01:55:40.471Z,161615.31
2023-03-14T01:58:48.355Z,161600.91
2023-03-14T02:01:52.917Z,161593.09
2023-03-14T02:04:58.395Z,161594.38
2023-03-14T02:08:05.964Z,161565.59
2023-03-14T02:11:10.183Z,161568.22
2023-03-14T02:14:25.966Z,161561.66
2023-03-14T02:17:29.986Z,161548.59
2023-03-14T02:21:18.312Z,161540.72
2023-03-14T02:24:38.229Z,161547.25
2023-03-14T02:27:42.612Z,161532.91
2023-03-14T02:30:47.416Z,161535.53
2023-03-14T02:33:52.184Z,161519.78
2023-03-14T02:36:56.626Z,161530.25
2023-03-14T02:40:05.363Z,161513.25
2023-03-14T02:43:10.360Z,161518.47
2023-03-14T02:46:17.796Z,161534.19
2023-03-14T02:49:22.624Z,161515.91
2023-03-14T02:52:26.533Z,161505.38
2023-03-14T02:55:30.678Z,161501.44
2023-03-14T02:58:36.459Z,161496.22
2023-03-14T03:01:40.375Z,161506.72
2023-03-14T03:04:44.520Z,161506.72
2023-03-14T03:07:48.468Z,161477.91
2023-03-14T03:10:53.028Z,161493.63
2023-03-14T03:13:56.992Z,161483.16
2023-03-14T03:17:00.827Z,161508.03
2023-03-14T03:20:06.004Z,161534.19
2023-03-14T03:23:10.286Z,161549.94
2023-03-14T03:26:14.372Z,161561.66
2023-03-14T03:29:18.448Z,161574.81
2023-03-14T03:32:22.549Z,161578.69
2023-03-14T03:35:26.433Z,161581.28
2023-03-14T03:38:30.796Z,161578.69
2023-03-14T03:41:34.957Z,161596.97
2023-03-14T03:44:39.377Z,161595.66
2023-03-14T03:47:43.398Z,161596.97
2023-03-14T03:50:48.153Z,161595.66
2023-03-14T03:53:52.682Z,161594.38
2023-03-14T03:56:56.928Z,161574.81
2023-03-14T04:00:01.201Z,161564.28
2023-03-14T04:03:05.608Z,161543.34
2023-03-14T04:06:12.984Z,161518.47
2023-03-14T04:09:17.083Z,161505.38
2023-03-14T04:12:21.268Z,161517.19
2023-03-14T04:15:25.383Z,161522.38
2023-03-14T04:18:31.243Z,161511.97
2023-03-14T04:21:35.345Z,161509.31
2023-03-14T04:24:39.428Z,161510.63
2023-03-14T04:27:43.377Z,161511.97
2023-03-14T04:30:47.175Z,161532.91
2023-03-14T04:33:51.016Z,161523.72
2023-03-14T04:36:54.698Z,161526.31
2023-03-14T04:39:58.657Z,161526.31
2023-03-14T04:43:02.750Z,161534.19
2023-03-14T04:46:07.496Z,161527.66
2023-03-14T04:49:11.297Z,161536.78
2023-03-14T04:52:15.357Z,161579.97
2023-03-14T04:55:19.592Z,161565.59
2023-03-14T04:58:24.893Z,161572.16
2023-03-14T05:01:29.056Z,161572.16
2023-03-14T05:04:34.626Z,161582.63
2023-03-14T05:07:38.405Z,161543.34
2023-03-14T05:10:42.508Z,161538.06
2023-03-14T05:13:46.802Z,161514.56
2023-03-14T05:16:50.634Z,161500.16
2023-03-14T05:19:54.464Z,161479.22
2023-03-14T05:22:58.688Z,161467.44
2023-03-14T05:26:02.914Z,161446.50
2023-03-14T05:29:07.136Z,161438.63
2023-03-14T05:32:11.217Z,161437.34
2023-03-14T05:35:15.060Z,161445.22
2023-03-14T05:38:19.853Z,161450.41
2023-03-14T05:41:24.346Z,161464.81
2023-03-14T05:44:28.371Z,161462.22
2023-03-14T05:47:32.284Z,161454.41
2023-03-14T05:50:36.474Z,161467.44
2023-03-14T05:53:40.429Z,161460.88
2023-03-14T05:56:44.723Z,161467.44
2023-03-14T05:59:48.866Z,161487.09
2023-03-14T06:02:52.978Z,161514.56
2023-03-14T06:05:57.041Z,161511.97
2023-03-14T06:09:01.027Z,161521.06
2023-03-14T06:12:05.429Z,161553.84
2023-03-14T06:15:10.195Z,161556.47
2023-03-14T06:18:15.094Z,161561.66
2023-03-14T06:21:20.431Z,161560.34
2023-03-14T06:24:24.375Z,161587.84
2023-03-14T06:27:28.594Z,161611.44
2023-03-14T06:30:32.694Z,161599.63
2023-03-14T06:33:36.652Z,161573.47
2023-03-14T06:36:40.733Z,161566.88
2023-03-14T06:39:45.332Z,161611.44
2023-03-14T06:42:49.565Z,161594.38
2023-03-14T06:45:53.929Z,161582.63
2023-03-14T06:48:58.083Z,161611.44
2023-03-14T06:52:02.334Z,161617.94
2023-03-14T06:55:07.221Z,161627.13
2023-03-14T06:58:11.521Z,161641.47
2023-03-14T07:01:23.682Z,161654.56
2023-03-14T07:04:27.991Z,161666.38
2023-03-14T07:07:32.324Z,161653.28
2023-03-14T07:10:36.677Z,161653.28
2023-03-14T07:13:41.131Z,161648.06
2023-03-14T07:16:46.080Z,161680.78
2023-03-14T07:19:49.948Z,161689.94
2023-03-14T07:22:53.882Z,161713.47
2023-03-14T07:25:58.042Z,161739.69
2023-03-14T07:29:04.132Z,161738.38
2023-03-14T07:32:08.927Z,161752.78
2023-03-14T07:35:13.175Z,161768.47
2023-03-14T07:38:18.130Z,161801.19
2023-03-14T07:41:23.900Z,161836.53
2023-03-14T07:44:28.008Z,161860.13
2023-03-14T07:47:32.077Z,161888.94
2023-03-14T07:50:36.199Z,161928.19
2023-03-14T07:53:40.463Z,161937.41
2023-03-14T07:56:44.492Z,162010.69
2023-03-14T07:59:48.458Z,162034.31
2023-03-14T08:02:52.413Z,162022.56
2023-03-14T08:05:56.775Z,162015.97
2023-03-14T08:09:00.831Z,161997.66
2023-03-14T08:12:05.228Z,161975.34
2023-03-14T08:15:09.273Z,161962.25
2023-03-14T08:18:13.037Z,162059.19
2023-03-14T08:21:17.318Z,162187.59
2023-03-14T08:24:21.200Z,162158.75
2023-03-14T08:27:25.119Z,162129.94
2023-03-14T08:30:29.098Z,162135.22
2023-03-14T08:33:33.282Z,162232.13
2023-03-14T08:36:37.407Z,162255.72
2023-03-14T08:39:41.612Z,162233.47
2023-03-14T08:42:46.566Z,162247.84
2023-03-14T08:45:50.468Z,162279.31
2023-03-14T08:48:54.695Z,162263.59
2023-03-14T08:51:59.695Z,162302.84
2023-03-14T08:55:04.119Z,162336.94
2023-03-14T08:58:08.099Z,162326.47
2023-03-14T09:01:12.855Z,162305.53
2023-03-14T09:04:17.781Z,162308.13
2023-03-14T09:07:22.166Z,162287.16
2023-03-14T09:10:26.404Z,162293.69
2023-03-14T09:13:30.661Z,162298.97
2023-03-14T09:16:35.003Z,162321.25
2023-03-14T09:19:39.407Z,162309.47
2023-03-14T09:22:43.396Z,162326.47
2023-03-14T09:25:47.794Z,162347.41
2023-03-14T09:28:51.845Z,162338.28
2023-03-14T09:31:58.089Z,162314.69
2023-03-14T09:35:02.366Z,162287.16
2023-03-14T09:38:06.770Z,162281.94
2023-03-14T09:41:16.922Z,162274.03
2023-03-14T09:44:49.058Z,162287.16
2023-03-14T09:47:59.481Z,162266.22
2023-03-14T09:51:15.000Z,162291.09
2023-03-14T09:54:33.616Z,162314.69
2023-03-14T09:57:38.264Z,162297.66
2023-03-14T10:00:42.385Z,162280.66
2023-03-14T10:03:47.349Z,162284.53
2023-03-14T10:06:51.409Z,162276.66
2023-03-14T10:09:55.892Z,162292.41
2023-03-14T10:13:12.049Z,162291.09
2023-03-14T10:16:15.836Z,162239.97
2023-03-14T10:19:19.929Z,162245.22
2023-03-14T10:22:27.057Z,162226.84
2023-03-14T10:25:36.969Z,162194.09
2023-03-14T10:28:52.230Z,162203.31
2023-03-14T10:32:02.959Z,162212.47
2023-03-14T10:35:20.436Z,162234.78
2023-03-14T10:38:36.265Z,162300.25
2023-03-14T10:41:40.714Z,162319.91
2023-03-14T10:44:45.300Z,162371.06
2023-03-14T10:47:51.656Z,162346.13
2023-03-14T10:51:20.625Z,162331.69
2023-03-14T10:54:24.912Z,162295.03
2023-03-14T10:57:29.324Z,162275.38
2023-03-14T11:00:34.219Z,162283.25
2023-03-14T11:03:43.654Z,162264.88
2023-03-14T11:06:53.697Z,162249.16
2023-03-14T11:10:09.634Z,162238.69
2023-03-14T11:13:21.845Z,162232.13
2023-03-14T11:16:40.338Z,162260.94
2023-03-14T11:20:25.909Z,162243.91
2023-03-14T11:24:05.454Z,162292.41
2023-03-14T11:27:35.750Z,162305.53
2023-03-14T11:30:48.895Z,162327.78
2023-03-14T11:34:16.371Z,162364.44
2023-03-14T11:37:34.695Z,162388.09
2023-03-14T11:40:40.065Z,162386.75
2023-03-14T11:43:49.282Z,162371.06
2023-03-14T11:47:00.581Z,162377.56
2023-03-14T11:50:16.662Z,162418.19
2023-03-14T11:53:44.481Z,162447.03
2023-03-14T11:57:03.598Z,162478.53
2023-03-14T12:00:28.431Z,162481.13
2023-03-14T12:03:56.804Z,162507.34
2023-03-14T12:07:06.527Z,162479.84
2023-03-14T12:10:11.367Z,162466.69
2023-03-14T12:13:16.955Z,162418.19
2023-03-14T12:16:23.889Z,162395.94
2023-03-14T12:19:31.641Z,162371.06
2023-03-14T12:22:42.388Z,162357.94
2023-03-14T12:25:46.409Z,162326.47
2023-03-14T12:29:15.717Z,162279.31
2023-03-14T12:32:26.744Z,162232.13
2023-03-14T12:35:40.003Z,162242.63
2023-03-14T12:38:57.992Z,162251.78
2023-03-14T12:42:27.443Z,162283.25
2023-03-14T12:45:36.065Z,162278.00
2023-03-14T12:48:41.197Z,162304.19
2023-03-14T12:51:45.239Z,162292.41
2023-03-14T12:54:59.838Z,162330.41
2023-03-14T12:58:13.350Z,162317.31
2023-03-14T13:01:20.306Z,162305.53
2023-03-14T13:04:43.899Z,162296.38
2023-03-14T13:07:48.265Z,162323.84
2023-03-14T13:10:52.414Z,162343.50
2023-03-14T13:14:00.212Z,162346.13
2023-03-14T13:17:25.151Z,162376.22
2023-03-14T13:20:31.642Z,162405.16
2023-03-14T13:23:38.415Z,162433.97
2023-03-14T13:26:44.233Z,162441.81
2023-03-14T13:29:51.942Z,162467.97
2023-03-14T13:32:56.761Z,162457.53
2023-03-14T13:36:04.669Z,162511.28
2023-03-14T13:39:15.044Z,162500.81
2023-03-14T13:42:19.858Z,162533.56
2023-03-14T13:45:24.004Z,162496.81
2023-03-14T13:48:30.618Z,162490.31
2023-03-14T13:51:34.902Z,162490.31
2023-03-14T13:54:42.272Z,162481.13
2023-03-14T13:57:55.518Z,162457.53
2023-03-14T14:01:01.824Z,162516.53
2023-03-14T14:04:15.199Z,162544.03
2023-03-14T14:07:19.456Z,162511.28
2023-03-14T14:10:24.152Z,162526.97
2023-03-14T14:13:30.912Z,162488.97
2023-03-14T14:16:35.079Z,162436.59
2023-03-14T14:19:41.546Z,162407.72
2023-03-14T14:22:46.758Z,162392.03
2023-03-14T14:25:50.927Z,162393.25
2023-03-14T14:29:05.003Z,162426.03
2023-03-14T14:32:08.972Z,162428.69
2023-03-14T14:35:31.307Z,162412.97
2023-03-14T14:38:35.260Z,162399.88
2023-03-14T14:41:42.247Z,162401.16
2023-03-14T14:44:46.644Z,162365.78
2023-03-14T14:47:52.942Z,162372.34
2023-03-14T14:51:01.586Z,162378.88
2023-03-14T14:54:12.104Z,162365.78
2023-03-14T14:57:20.909Z,162351.34
2023-03-14T15:00:27.760Z,162287.16
2023-03-14T15:03:34.443Z,162173.13
2023-03-14T15:06:38.424Z,162067.06
2023-03-14T15:09:44.017Z,162004.19
2023-03-14T15:12:48.626Z,161967.53
2023-03-14T15:15:59.406Z,161714.81
2023-03-14T15:19:24.899Z,161436.06
2023-03-14T15:22:29.080Z,161106.41
2023-03-14T15:25:53.341Z,160910.31
2023-03-14T15:28:57.488Z,160808.34
2023-03-14T15:32:01.877Z,160735.19
2023-03-14T15:35:08.411Z,160726.00
2023-03-14T15:38:14.653Z,160703.84
2023-03-14T15:41:21.998Z,160647.63
2023-03-14T15:44:26.027Z,160643.69
2023-03-14T15:47:33.044Z,160586.22
2023-03-14T15:50:36.972Z,160553.56
2023-03-14T15:53:41.785Z,160517.03
2023-03-14T15:56:45.661Z,160469.97
2023-03-14T15:59:49.953Z,160417.78
2023-03-14T16:02:54.147Z,160392.97
2023-03-14T16:05:58.560Z,160399.44
2023-03-14T16:09:02.781Z,160377.22
2023-03-14T16:12:08.763Z,160366.78
2023-03-14T16:15:12.738Z,160353.75
2023-03-14T16:18:22.054Z,160313.28
2023-03-14T16:21:26.918Z,160278.00
2023-03-14T16:24:31.017Z,160285.88
2023-03-14T16:27:35.100Z,160253.22
2023-03-14T16:30:39.302Z,160232.28
2023-03-14T16:33:43.799Z,160261.09
2023-03-14T16:36:48.109Z,160246.69
2023-03-14T16:40:11.035Z,160220.59
2023-03-14T16:43:16.521Z,160174.88
2023-03-14T16:46:22.603Z,160144.91
2023-03-14T16:49:26.981Z,160135.75
2023-03-14T16:52:31.354Z,160088.72
2023-03-14T16:55:35.507Z,160082.22
2023-03-14T16:58:40.341Z,160058.72
2023-03-14T17:01:44.946Z,160060.03
2023-03-14T17:04:48.964Z,160065.28
2023-03-14T17:07:53.309Z,160063.97
2023-03-14T17:10:57.607Z,160040.50
2023-03-14T17:14:02.457Z,160043.03
2023-03-14T17:17:06.978Z,160074.44
2023-03-14T17:20:11.866Z,160078.34
2023-03-14T17:23:16.848Z,160058.72
2023-03-14T17:26:20.998Z,160046.97
2023-03-14T17:29:25.512Z,160056.13
2023-03-14T17:32:29.698Z,160079.63
2023-03-14T17:35:34.045Z,160058.72
2023-03-14T17:38:38.082Z,160049.59
2023-03-14T17:41:42.328Z,160057.44
2023-03-14T17:44:46.740Z,160069.19
2023-03-14T17:47:50.842Z,160058.72
2023-03-14T17:50:57.991Z,160062.63
2023-03-14T17:54:02.761Z,160078.34
2023-03-14T17:57:07.202Z,160080.94
2023-03-14T18:00:13.080Z,160082.22
2023-03-14T18:03:17.348Z,160074.44
2023-03-14T18:06:23.549Z,160079.63
2023-03-14T18:09:27.736Z,160067.88
2023-03-14T18:12:32.163Z,160082.22
2023-03-14T18:15:36.133Z,160083.50
2023-03-14T18:18:42.038Z,160100.47
2023-03-14T18:21:47.434Z,160118.78
2023-03-14T18:24:51.776Z,160096.56
2023-03-14T18:27:55.838Z,160110.97
2023-03-14T18:31:11.766Z,160095.28
2023-03-14T18:34:16.877Z,160077.03
2023-03-14T18:37:21.137Z,160057.44
2023-03-14T18:40:25.459Z,160043.03
2023-03-14T18:43:29.461Z,160030.03
2023-03-14T18:46:33.919Z,159992.22
2023-03-14T18:49:38.328Z,159990.91
2023-03-14T18:52:42.354Z,159972.59
2023-03-14T18:55:46.433Z,159951.75
2023-03-14T18:58:50.791Z,159970.00
2023-03-14T19:01:54.997Z,159937.41
2023-03-14T19:04:58.958Z,159938.66
2023-03-14T19:08:03.070Z,159945.22
2023-03-14T19:11:08.916Z,159946.56
2023-03-14T19:14:15.883Z,159929.56
2023-03-14T19:17:19.793Z,159949.16
2023-03-14T19:20:24.505Z,159958.31
2023-03-14T19:23:28.997Z,159972.59
2023-03-14T19:26:35.140Z,159947.81
2023-03-14T19:29:42.152Z,159950.47
2023-03-14T19:32:46.665Z,159949.16
2023-03-14T19:35:50.887Z,159936.06
2023-03-14T19:38:55.506Z,159928.25
2023-03-14T19:41:59.616Z,159917.78
2023-03-14T19:45:04.920Z,159916.50
2023-03-14T19:48:11.252Z,159890.41
2023-03-14T19:51:16.296Z,159908.72
2023-03-14T19:54:20.994Z,159904.81
2023-03-14T19:57:24.955Z,159874.75
2023-03-14T20:00:29.524Z,159866.97
2023-03-14T20:03:36.647Z,159883.91
2023-03-14T20:06:44.503Z,159870.88
2023-03-14T20:09:48.409Z,159883.91
2023-03-14T20:12:52.600Z,159894.31
2023-03-14T20:15:56.835Z,159879.97
2023-03-14T20:19:01.466Z,159870.88
2023-03-14T20:22:05.605Z,159873.44
2023-03-14T20:25:18.572Z,159857.81
2023-03-14T20:28:23.340Z,159857.81
2023-03-14T20:31:27.613Z,159847.41
2023-03-14T20:34:34.140Z,159829.09
2023-03-14T20:37:38.763Z,159830.41
2023-03-14T20:40:45.899Z,159834.31
2023-03-14T20:43:50.288Z,159821.31
2023-03-14T20:46:56.130Z,159801.75
2023-03-14T20:50:01.626Z,159816.06
2023-03-14T20:53:05.990Z,159804.34
2023-03-14T20:56:10.298Z,159805.66
2023-03-14T20:59:14.375Z,159782.13
2023-03-14T21:02:18.632Z,159777.00
2023-03-14T21:05:23.843Z,159777.00
2023-03-14T21:08:27.907Z,159765.19
2023-03-14T21:11:32.391Z,159770.44
2023-03-14T21:14:36.351Z,159769.09
2023-03-14T21:17:41.908Z,159745.63
2023-03-14T21:20:46.241Z,159757.38
2023-03-14T21:23:54.194Z,159754.78
2023-03-14T21:26:58.494Z,159731.28
2023-03-14T21:30:03.332Z,159735.19
2023-03-14T21:33:07.758Z,159724.78
2023-03-14T21:36:11.995Z,159706.53
2023-03-14T21:39:16.320Z,159728.69
2023-03-14T21:42:21.478Z,159735.19
2023-03-14T21:45:26.759Z,159705.22
2023-03-14T21:48:31.052Z,159706.53
2023-03-14T21:51:35.687Z,159728.69
2023-03-14T21:54:43.278Z,159711.72
2023-03-14T21:57:48.999Z,159722.19
2023-03-14T22:00:54.939Z,159705.22
2023-03-14T22:04:00.355Z,159694.75
2023-03-14T22:07:07.148Z,159690.84
2023-03-14T22:10:13.070Z,159685.66
2023-03-14T22:13:18.098Z,159680.41
2023-03-14T22:16:22.269Z,159684.31
2023-03-14T22:19:27.543Z,159686.91
2023-03-14T22:22:31.724Z,159681.75
2023-03-14T22:25:35.625Z,159693.47
2023-03-14T22:28:39.863Z,159716.97
2023-03-14T22:31:43.776Z,159727.44
2023-03-14T22:34:47.507Z,159715.63
2023-03-14T22:37:51.664Z,159740.38
2023-03-14T22:41:03.331Z,159741.72
2023-03-14T22:44:07.142Z,159745.63
2023-03-14T22:47:11.715Z,159760.00
2023-03-14T22:50:16.228Z,159743.03
2023-03-14T22:53:20.369Z,159746.94
2023-03-14T22:56:24.514Z,159720.88
2023-03-14T22:59:28.656Z,159711.72
2023-03-14T23:02:32.855Z,159709.13
2023-03-14T23:05:36.987Z,159710.47
2023-03-14T23:08:41.695Z,159719.53
2023-03-14T23:11:45.605Z,159719.53
2023-03-14T23:14:49.736Z,159718.28
2023-03-14T23:17:53.982Z,159714.38
2023-03-14T23:21:13.820Z,159727.44
2023-03-14T23:24:17.889Z,159730.03
2023-03-14T23:27:21.948Z,159715.63
2023-03-14T23:30:26.013Z,159693.47
2023-03-14T23:33:29.993Z,159703.91
2023-03-14T23:36:37.191Z,159701.31
2023-03-14T23:39:44.551Z,159703.91
2023-03-14T23:42:49.569Z,159697.38
2023-03-14T23:45:55.984Z,159703.91
2023-03-14T23:48:59.760Z,159693.47
2023-03-14T23:52:03.810Z,159690.84
2023-03-14T23:55:08.302Z,159693.47
2023-03-14T23:58:12.268Z,159667.41
